sensor_id;sensor_type;location;lat;lon;timestamp;pressure;altitude;pressure_sealevel;temperature;humidity
62791;BME280;48830;53.426;10.300;2022-10-26T00:01:13;101644.06;;;9.38;100.00
62791;BME280;48830;53.426;10.300;2022-10-26T00:03:40;101639.91;;;9.42;100.00
62791;BME280;48830;53.426;10.300;2022-10-26T00:06:09;101641.53;;;9.40;100.00
62791;BME280;48830;53.426;10.300;2022-10-26T00:08:35;101639.69;;;9.36;100.00
62791;BME280;48830;53.426;10.300;2022-10-26T00:11:00;101639.59;;;9.33;100.00
62791;BME280;48830;53.426;10.300;2022-10-26T00:13:26;101641.34;;;9.34;100.00
62791;BME280;48830;53.426;10.300;2022-10-26T00:15:52;101642.13;;;9.31;100.00
62791;BME280;48830;53.426;10.300;2022-10-26T00:18:18;101646.34;;;9.31;100.00
62791;BME280;48830;53.426;10.300;2022-10-26T00:20:43;101645.47;;;9.30;100.00
62791;BME280;48830;53.426;10.300;2022-10-26T00:23:09;101637.88;;;9.32;100.00
62791;BME280;48830;53.426;10.300;2022-10-26T00:25:34;101644.63;;;9.30;100.00
62791;BME280;48830;53.426;10.300;2022-10-26T00:28:00;101639.41;;;9.27;100.00
62791;BME280;48830;53.426;10.300;2022-10-26T00:30:25;101639.41;;;9.27;100.00
62791;BME280;48830;53.426;10.300;2022-10-26T00:32:51;101642.66;;;9.23;100.00
62791;BME280;48830;53.426;10.300;2022-10-26T00:35:16;101636.63;;;9.20;100.00
62791;BME280;48830;53.426;10.300;2022-10-26T00:37:42;101650.25;;;9.19;100.00
62791;BME280;48830;53.426;10.300;2022-10-26T00:40:08;101644.19;;;9.17;100.00
62791;BME280;48830;53.426;10.300;2022-10-26T00:42:33;101643.22;;;9.14;100.00
62791;BME280;48830;53.426;10.300;2022-10-26T00:45:03;101633.78;;;9.13;100.00
62791;BME280;48830;53.426;10.300;2022-10-26T00:47:44;101644.00;;;9.11;100.00
62791;BME280;48830;53.426;10.300;2022-10-26T00:50:18;101641.22;;;9.05;100.00
62791;BME280;48830;53.426;10.300;2022-10-26T00:52:44;101646.84;;;8.95;100.00
62791;BME280;48830;53.426;10.300;2022-10-26T00:55:10;101643.31;;;8.93;100.00
62791;BME280;48830;53.426;10.300;2022-10-26T00:57:36;101641.50;;;8.89;100.00
62791;BME280;48830;53.426;10.300;2022-10-26T01:00:05;101639.75;;;8.88;100.00
62791;BME280;48830;53.426;10.300;2022-10-26T01:02:31;101639.50;;;8.82;100.00
62791;BME280;48830;53.426;10.300;2022-10-26T01:04:58;101641.03;;;8.77;100.00
62791;BME280;48830;53.426;10.300;2022-10-26T01:07:24;101636.81;;;8.77;100.00
62791;BME280;48830;53.426;10.300;2022-10-26T01:09:50;101640.13;;;8.75;100.00
62791;BME280;48830;53.426;10.300;2022-10-26T01:12:17;101646.81;;;8.71;100.00
62791;BME280;48830;53.426;10.300;2022-10-26T01:14:43;101643.34;;;8.69;100.00
62791;BME280;48830;53.426;10.300;2022-10-26T01:31:10;101629.69;;;8.70;100.00
62791;BME280;48830;53.426;10.300;2022-10-26T01:33:55;101630.25;;;8.61;100.00
62791;BME280;48830;53.426;10.300;2022-10-26T01:36:32;101628.38;;;8.57;100.00
62791;BME280;48830;53.426;10.300;2022-10-26T01:39:08;101635.13;;;8.55;100.00
62791;BME280;48830;53.426;10.300;2022-10-26T01:41:43;101629.91;;;8.52;100.00
62791;BME280;48830;53.426;10.300;2022-10-26T01:44:17;101630.59;;;8.48;100.00
62791;BME280;48830;53.426;10.300;2022-10-26T01:46:48;101636.53;;;8.47;100.00
62791;BME280;48830;53.426;10.300;2022-10-26T01:49:16;101642.53;;;8.48;100.00
62791;BME280;48830;53.426;10.300;2022-10-26T01:51:45;101633.06;;;8.45;100.00
62791;BME280;48830;53.426;10.300;2022-10-26T01:54:12;101643.22;;;8.44;100.00
62791;BME280;48830;53.426;10.300;2022-10-26T01:56:40;101640.66;;;8.44;100.00
62791;BME280;48830;53.426;10.300;2022-10-26T01:59:34;101637.94;;;8.39;100.00
62791;BME280;48830;53.426;10.300;2022-10-26T02:13:13;101626.28;;;8.47;100.00
62791;BME280;48830;53.426;10.300;2022-10-26T02:15:48;101626.28;;;8.47;100.00
62791;BME280;48830;53.426;10.300;2022-10-26T02:21:14;101632.25;;;8.46;100.00
62791;BME280;48830;53.426;10.300;2022-10-26T02:23:43;101626.41;;;8.50;100.00
62791;BME280;48830;53.426;10.300;2022-10-26T02:26:12;101622.00;;;8.46;100.00
62791;BME280;48830;53.426;10.300;2022-10-26T02:28:44;101622.00;;;8.46;100.00
62791;BME280;48830;53.426;10.300;2022-10-26T02:31:12;101624.31;;;8.40;100.00
62791;BME280;48830;53.426;10.300;2022-10-26T02:33:41;101622.47;;;8.36;100.00
62791;BME280;48830;53.426;10.300;2022-10-26T02:36:10;101623.13;;;8.32;100.00
62791;BME280;48830;53.426;10.300;2022-10-26T02:38:39;101620.28;;;8.24;100.00
62791;BME280;48830;53.426;10.300;2022-10-26T02:41:07;101616.84;;;8.24;100.00
62791;BME280;48830;53.426;10.300;2022-10-26T02:43:38;101622.72;;;8.21;100.00
62791;BME280;48830;53.426;10.300;2022-10-26T02:46:10;101628.59;;;8.19;100.00
62791;BME280;48830;53.426;10.300;2022-10-26T02:48:37;101625.00;;;8.13;100.00
62791;BME280;48830;53.426;10.300;2022-10-26T02:51:30;101617.41;;;8.16;100.00
62791;BME280;48830;53.426;10.300;2022-10-26T02:56:36;101613.09;;;8.15;100.00
62791;BME280;48830;53.426;10.300;2022-10-26T02:59:05;101614.63;;;8.10;100.00
62791;BME280;48830;53.426;10.300;2022-10-26T03:01:34;101619.63;;;8.07;100.00
62791;BME280;48830;53.426;10.300;2022-10-26T03:03:59;101617.88;;;8.06;100.00
62791;BME280;48830;53.426;10.300;2022-10-26T03:06:25;101619.50;;;8.04;100.00
62791;BME280;48830;53.426;10.300;2022-10-26T03:08:51;101621.06;;;8.01;100.00
62791;BME280;48830;53.426;10.300;2022-10-26T03:11:17;101612.66;;;8.03;100.00
62791;BME280;48830;53.426;10.300;2022-10-26T03:13:43;101604.91;;;8.02;100.00
62791;BME280;48830;53.426;10.300;2022-10-26T03:16:09;101610.91;;;8.02;100.00
62791;BME280;48830;53.426;10.300;2022-10-26T03:18:35;101608.22;;;7.99;100.00
62791;BME280;48830;53.426;10.300;2022-10-26T03:21:00;101605.78;;;8.02;100.00
62791;BME280;48830;53.426;10.300;2022-10-26T03:23:25;101609.03;;;7.98;100.00
62791;BME280;48830;53.426;10.300;2022-10-26T03:25:55;101611.41;;;7.94;100.00
62791;BME280;48830;53.426;10.300;2022-10-26T03:28:21;101613.91;;;7.92;100.00
62791;BME280;48830;53.426;10.300;2022-10-26T03:30:46;101611.28;;;7.90;100.00
62791;BME280;48830;53.426;10.300;2022-10-26T03:33:12;101606.91;;;7.88;100.00
62791;BME280;48830;53.426;10.300;2022-10-26T03:35:37;101610.41;;;7.90;100.00
62791;BME280;48830;53.426;10.300;2022-10-26T03:38:02;101608.56;;;7.86;100.00
62791;BME280;48830;53.426;10.300;2022-10-26T03:40:28;101613.72;;;7.87;100.00
62791;BME280;48830;53.426;10.300;2022-10-26T03:42:53;101612.00;;;7.86;100.00
62791;BME280;48830;53.426;10.300;2022-10-26T03:45:19;101610.97;;;7.83;100.00
62791;BME280;48830;53.426;10.300;2022-10-26T03:47:48;101604.19;;;7.83;100.00
62791;BME280;48830;53.426;10.300;2022-10-26T03:50:16;101606.69;;;7.82;100.00
62791;BME280;48830;53.426;10.300;2022-10-26T03:52:43;101609.28;;;7.83;100.00
62791;BME280;48830;53.426;10.300;2022-10-26T03:55:09;101610.94;;;7.81;100.00
62791;BME280;48830;53.426;10.300;2022-10-26T03:57:39;101609.94;;;7.78;100.00
62791;BME280;48830;53.426;10.300;2022-10-26T04:00:06;101605.63;;;7.77;100.00
62791;BME280;48830;53.426;10.300;2022-10-26T04:02:36;101608.06;;;7.74;100.00
62791;BME280;48830;53.426;10.300;2022-10-26T04:05:02;101611.44;;;7.73;100.00
62791;BME280;48830;53.426;10.300;2022-10-26T04:07:28;101612.47;;;7.78;100.00
62791;BME280;48830;53.426;10.300;2022-10-26T04:09:53;101609.94;;;7.78;100.00
62791;BME280;48830;53.426;10.300;2022-10-26T04:12:19;101615.91;;;7.78;100.00
62791;BME280;48830;53.426;10.300;2022-10-26T04:14:44;101610.59;;;7.74;100.00
62791;BME280;48830;53.426;10.300;2022-10-26T04:17:10;101605.44;;;7.72;100.00
62791;BME280;48830;53.426;10.300;2022-10-26T04:19:35;101608.06;;;7.74;100.00
62791;BME280;48830;53.426;10.300;2022-10-26T04:22:00;101608.81;;;7.71;100.00
62791;BME280;48830;53.426;10.300;2022-10-26T04:24:26;101606.31;;;7.73;100.00
62791;BME280;48830;53.426;10.300;2022-10-26T04:26:51;101607.94;;;7.71;100.00
62791;BME280;48830;53.426;10.300;2022-10-26T04:29:17;101602.94;;;7.74;100.00
62791;BME280;48830;53.426;10.300;2022-10-26T04:31:42;101604.66;;;7.75;100.00
62791;BME280;48830;53.426;10.300;2022-10-26T04:34:07;101603.06;;;7.77;100.00
62791;BME280;48830;53.426;10.300;2022-10-26T04:36:33;101601.19;;;7.73;100.00
62791;BME280;48830;53.426;10.300;2022-10-26T04:38:59;101596.84;;;7.70;100.00
62791;BME280;48830;53.426;10.300;2022-10-26T04:41:24;101601.88;;;7.69;100.00
62791;BME280;48830;53.426;10.300;2022-10-26T04:43:50;101600.09;;;7.66;100.00
62791;BME280;48830;53.426;10.300;2022-10-26T04:46:15;101609.31;;;7.62;100.00
62791;BME280;48830;53.426;10.300;2022-10-26T04:48:41;101607.56;;;7.61;100.00
62791;BME280;48830;53.426;10.300;2022-10-26T04:51:06;101604.94;;;7.60;100.00
62791;BME280;48830;53.426;10.300;2022-10-26T04:53:32;101601.38;;;7.56;100.00
62791;BME280;48830;53.426;10.300;2022-10-26T04:55:58;101597.81;;;7.53;100.00
62791;BME280;48830;53.426;10.300;2022-10-26T04:58:24;101593.47;;;7.50;100.00
62791;BME280;48830;53.426;10.300;2022-10-26T05:00:50;101590.00;;;7.48;100.00
62791;BME280;48830;53.426;10.300;2022-10-26T05:03:15;101595.09;;;7.48;100.00
62791;BME280;48830;53.426;10.300;2022-10-26T05:05:41;101598.44;;;7.47;100.00
62791;BME280;48830;53.426;10.300;2022-10-26T05:08:06;101596.72;;;7.46;100.00
62791;BME280;48830;53.426;10.300;2022-10-26T05:10:32;101588.09;;;7.44;100.00
62791;BME280;48830;53.426;10.300;2022-10-26T05:12:58;101590.53;;;7.41;100.00
62791;BME280;48830;53.426;10.300;2022-10-26T05:15:24;101588.72;;;7.39;100.00
62791;BME280;48830;53.426;10.300;2022-10-26T05:17:58;101577.44;;;7.33;100.00
62791;BME280;48830;53.426;10.300;2022-10-26T05:20:25;101585.78;;;7.29;100.00
62791;BME280;48830;53.426;10.300;2022-10-26T05:22:59;101581.44;;;7.27;100.00
62791;BME280;48830;53.426;10.300;2022-10-26T05:25:26;101591.72;;;7.28;100.00
62791;BME280;48830;53.426;10.300;2022-10-26T05:27:59;101586.47;;;7.25;100.00
62791;BME280;48830;53.426;10.300;2022-10-26T05:30:25;101586.59;;;7.28;100.00
62791;BME280;48830;53.426;10.300;2022-10-26T05:32:55;101585.59;;;7.25;100.00
62791;BME280;48830;53.426;10.300;2022-10-26T05:35:21;101584.66;;;7.23;100.00
62791;BME280;48830;53.426;10.300;2022-10-26T05:37:46;101593.16;;;7.22;100.00
62791;BME280;48830;53.426;10.300;2022-10-26T05:40:12;101589.59;;;7.18;100.00
62791;BME280;48830;53.426;10.300;2022-10-26T05:42:37;101583.47;;;7.15;100.00
62791;BME280;48830;53.426;10.300;2022-10-26T05:45:03;101591.06;;;7.13;100.00
62791;BME280;48830;53.426;10.300;2022-10-26T05:47:28;101583.22;;;7.08;100.00
62791;BME280;48830;53.426;10.300;2022-10-26T05:49:53;101594.31;;;7.09;100.00
62791;BME280;48830;53.426;10.300;2022-10-26T05:52:19;101591.84;;;7.10;100.00
62791;BME280;48830;53.426;10.300;2022-10-26T05:54:44;101591.69;;;7.07;100.00
62791;BME280;48830;53.426;10.300;2022-10-26T05:57:11;101596.81;;;7.07;100.00
62791;BME280;48830;53.426;10.300;2022-10-26T05:59:36;101600.28;;;7.09;100.00
62791;BME280;48830;53.426;10.300;2022-10-26T06:04:49;101610.41;;;7.06;100.00
62791;BME280;48830;53.426;10.300;2022-10-26T06:07:16;101604.41;;;7.06;100.00
62791;BME280;48830;53.426;10.300;2022-10-26T06:09:43;101613.00;;;7.08;100.00
62791;BME280;48830;53.426;10.300;2022-10-26T06:12:10;101610.41;;;7.06;100.00
62791;BME280;48830;53.426;10.300;2022-10-26T06:14:36;101612.28;;;7.10;100.00
62791;BME280;48830;53.426;10.300;2022-10-26T06:20:21;101609.28;;;7.21;100.00
62791;BME280;48830;53.426;10.300;2022-10-26T06:23:18;101604.16;;;7.21;100.00
62791;BME280;48830;53.426;10.300;2022-10-26T06:26:23;101616.28;;;7.25;100.00
62791;BME280;48830;53.426;10.300;2022-10-26T06:31:43;101623.34;;;7.30;100.00
62791;BME280;48830;53.426;10.300;2022-10-26T06:34:10;101616.66;;;7.34;100.00
62791;BME280;48830;53.426;10.300;2022-10-26T06:36:37;101616.66;;;7.34;100.00
62791;BME280;48830;53.426;10.300;2022-10-26T06:39:09;101623.66;;;7.38;100.00
62791;BME280;48830;53.426;10.300;2022-10-26T06:41:36;101619.47;;;7.40;100.00
62791;BME280;48830;53.426;10.300;2022-10-26T06:44:03;101618.66;;;7.41;100.00
62791;BME280;48830;53.426;10.300;2022-10-26T06:46:42;101622.19;;;7.43;100.00
62791;BME280;48830;53.426;10.300;2022-10-26T06:49:26;101629.09;;;7.46;100.00
62791;BME280;48830;53.426;10.300;2022-10-26T06:52:11;101628.28;;;7.47;100.00
62791;BME280;48830;53.426;10.300;2022-10-26T06:54:51;101628.59;;;7.54;100.00
62791;BME280;48830;53.426;10.300;2022-10-26T06:57:31;101633.09;;;7.60;100.00
62791;BME280;48830;53.426;10.300;2022-10-26T07:00:15;101635.84;;;7.65;100.00
62791;BME280;48830;53.426;10.300;2022-10-26T07:02:42;101636.19;;;7.74;100.00
62791;BME280;48830;53.426;10.300;2022-10-26T07:05:08;101635.66;;;7.81;100.00
62791;BME280;48830;53.426;10.300;2022-10-26T07:07:43;101639.38;;;7.89;100.00
62791;BME280;48830;53.426;10.300;2022-10-26T07:10:10;101638.94;;;7.99;100.00
62791;BME280;48830;53.426;10.300;2022-10-26T07:12:36;101639.13;;;8.04;100.00
62791;BME280;48830;53.426;10.300;2022-10-26T07:15:03;101633.53;;;8.14;100.00
62791;BME280;48830;53.426;10.300;2022-10-26T07:17:28;101638.94;;;8.22;100.00
62791;BME280;48830;53.426;10.300;2022-10-26T07:19:55;101650.38;;;8.30;100.00
62791;BME280;48830;53.426;10.300;2022-10-26T07:22:21;101647.31;;;8.38;100.00
62791;BME280;48830;53.426;10.300;2022-10-26T07:24:46;101642.59;;;8.49;100.00
62791;BME280;48830;53.426;10.300;2022-10-26T07:27:16;101645.75;;;8.66;100.00
62791;BME280;48830;53.426;10.300;2022-10-26T07:29:44;101646.31;;;8.81;100.00
62791;BME280;48830;53.426;10.300;2022-10-26T07:32:09;101657.34;;;9.03;100.00
62791;BME280;48830;53.426;10.300;2022-10-26T07:34:34;101646.16;;;9.25;100.00
62791;BME280;48830;53.426;10.300;2022-10-26T07:37:00;101652.78;;;9.43;100.00
62791;BME280;48830;53.426;10.300;2022-10-26T07:39:25;101651.63;;;9.59;100.00
62791;BME280;48830;53.426;10.300;2022-10-26T07:41:51;101648.69;;;9.74;100.00
62791;BME280;48830;53.426;10.300;2022-10-26T07:44:16;101646.66;;;9.91;100.00
62791;BME280;48830;53.426;10.300;2022-10-26T07:46:42;101643.66;;;10.06;100.00
62791;BME280;48830;53.426;10.300;2022-10-26T07:49:07;101643.00;;;10.11;100.00
62791;BME280;48830;53.426;10.300;2022-10-26T07:51:33;101642.75;;;10.31;100.00
62791;BME280;48830;53.426;10.300;2022-10-26T07:53:58;101642.44;;;10.48;100.00
62791;BME280;48830;53.426;10.300;2022-10-26T07:56:24;101647.13;;;10.62;100.00
62791;BME280;48830;53.426;10.300;2022-10-26T07:58:51;101645.69;;;10.71;100.00
62791;BME280;48830;53.426;10.300;2022-10-26T08:01:17;101649.16;;;10.73;100.00
62791;BME280;48830;53.426;10.300;2022-10-26T08:03:42;101648.09;;;10.97;100.00
62791;BME280;48830;53.426;10.300;2022-10-26T08:06:08;101651.25;;;11.18;100.00
62791;BME280;48830;53.426;10.300;2022-10-26T08:08:34;101660.63;;;11.16;100.00
62791;BME280;48830;53.426;10.300;2022-10-26T08:11:00;101657.72;;;11.36;100.00
62791;BME280;48830;53.426;10.300;2022-10-26T08:13:26;101658.44;;;11.63;100.00
62791;BME280;48830;53.426;10.300;2022-10-26T08:15:58;101669.81;;;11.73;100.00
62791;BME280;48830;53.426;10.300;2022-10-26T08:18:25;101659.41;;;12.03;100.00
62791;BME280;48830;53.426;10.300;2022-10-26T08:20:51;101659.00;;;11.85;100.00
62791;BME280;48830;53.426;10.300;2022-10-26T08:23:16;101658.75;;;12.12;100.00
62791;BME280;48830;53.426;10.300;2022-10-26T08:25:42;101656.06;;;12.07;100.00
62791;BME280;48830;53.426;10.300;2022-10-26T08:28:07;101660.72;;;12.22;100.00
62791;BME280;48830;53.426;10.300;2022-10-26T08:30:33;101659.41;;;12.41;100.00
62791;BME280;48830;53.426;10.300;2022-10-26T08:33:06;101664.28;;;12.69;100.00
62791;BME280;48830;53.426;10.300;2022-10-26T08:35:32;101672.31;;;12.83;100.00
62791;BME280;48830;53.426;10.300;2022-10-26T08:37:59;101664.50;;;12.78;100.00
62791;BME280;48830;53.426;10.300;2022-10-26T08:40:30;101661.38;;;12.95;100.00
62791;BME280;48830;53.426;10.300;2022-10-26T08:43:06;101661.22;;;13.29;99.63
62791;BME280;48830;53.426;10.300;2022-10-26T08:45:37;101664.19;;;13.52;97.80
62791;BME280;48830;53.426;10.300;2022-10-26T08:48:14;101657.06;;;13.90;96.44
62791;BME280;48830;53.426;10.300;2022-10-26T08:50:54;101656.06;;;14.41;95.20
62791;BME280;48830;53.426;10.300;2022-10-26T08:53:38;101652.19;;;14.71;92.06
62791;BME280;48830;53.426;10.300;2022-10-26T08:56:19;101646.88;;;15.39;89.53
62791;BME280;48830;53.426;10.300;2022-10-26T08:58:49;101644.00;;;19.24;75.31
62791;BME280;48830;53.426;10.300;2022-10-26T09:01:17;101641.22;;;21.66;64.34
62791;BME280;48830;53.426;10.300;2022-10-26T09:03:43;101635.94;;;23.02;58.56
62791;BME280;48830;53.426;10.300;2022-10-26T09:23:01;101637.88;;;28.21;44.47
62791;BME280;48830;53.426;10.300;2022-10-26T09:25:37;101638.72;;;28.61;43.62
62791;BME280;48830;53.426;10.300;2022-10-26T09:28:04;101630.44;;;28.10;44.47
62791;BME280;48830;53.426;10.300;2022-10-26T09:30:32;101633.03;;;28.70;43.56
62791;BME280;48830;53.426;10.300;2022-10-26T09:33:03;101613.31;;;26.93;45.07
62791;BME280;48830;53.426;10.300;2022-10-26T09:35:58;101614.78;;;28.64;43.36
62791;BME280;48830;53.426;10.300;2022-10-26T09:41:26;101606.44;;;30.13;40.82
62791;BME280;48830;53.426;10.300;2022-10-26T09:46:51;101596.53;;;31.12;39.57
62791;BME280;48830;53.426;10.300;2022-10-26T09:49:20;101601.97;;;32.42;38.27
62791;BME280;48830;53.426;10.300;2022-10-26T09:51:47;101598.25;;;31.43;38.56
62791;BME280;48830;53.426;10.300;2022-10-26T09:54:18;101608.09;;;33.25;36.69
62791;BME280;48830;53.426;10.300;2022-10-26T09:56:49;101614.25;;;33.12;36.65
62791;BME280;48830;53.426;10.300;2022-10-26T09:59:17;101600.59;;;34.20;35.36
62791;BME280;48830;53.426;10.300;2022-10-26T10:01:44;101604.19;;;33.03;37.33
62791;BME280;48830;53.426;10.300;2022-10-26T10:06:43;101600.72;;;34.06;35.61
62791;BME280;48830;53.426;10.300;2022-10-26T10:09:13;101603.06;;;34.24;34.37
62791;BME280;48830;53.426;10.300;2022-10-26T10:14:15;101595.47;;;35.04;34.47
62791;BME280;48830;53.426;10.300;2022-10-26T10:16:49;101596.81;;;35.44;34.07
62791;BME280;48830;53.426;10.300;2022-10-26T10:19:29;101591.28;;;35.35;33.77
62791;BME280;48830;53.426;10.300;2022-10-26T10:22:19;101592.88;;;36.28;32.69
62791;BME280;48830;53.426;10.300;2022-10-26T10:24:54;101593.75;;;36.07;33.06
62791;BME280;48830;53.426;10.300;2022-10-26T10:27:20;101602.50;;;35.97;33.25
62791;BME280;48830;53.426;10.300;2022-10-26T10:29:49;101604.19;;;36.98;32.42
62791;BME280;48830;53.426;10.300;2022-10-26T10:32:21;101599.41;;;37.01;32.22
62791;BME280;48830;53.426;10.300;2022-10-26T10:34:47;101606.88;;;36.43;32.90
62791;BME280;48830;53.426;10.300;2022-10-26T10:37:35;101599.72;;;37.19;31.64
62791;BME280;48830;53.426;10.300;2022-10-26T10:40:08;101596.56;;;37.14;32.74
62791;BME280;48830;53.426;10.300;2022-10-26T10:42:38;101601.72;;;37.27;31.38
62791;BME280;48830;53.426;10.300;2022-10-26T10:45:06;101593.81;;;37.25;31.79
62791;BME280;48830;53.426;10.300;2022-10-26T10:48:01;101597.75;;;35.90;32.61
62791;BME280;48830;53.426;10.300;2022-10-26T10:50:27;101590.38;;;36.70;32.85
62791;BME280;48830;53.426;10.300;2022-10-26T10:53:11;101589.56;;;37.86;31.12
62791;BME280;48830;53.426;10.300;2022-10-26T10:55:37;101601.50;;;38.43;30.18
62791;BME280;48830;53.426;10.300;2022-10-26T10:58:21;101592.16;;;37.76;31.11
62791;BME280;48830;53.426;10.300;2022-10-26T11:00:47;101597.38;;;37.47;31.79
62791;BME280;48830;53.426;10.300;2022-10-26T11:06:02;101596.63;;;37.03;33.24
62791;BME280;48830;53.426;10.300;2022-10-26T11:09:01;101585.13;;;39.43;30.45
62791;BME280;48830;53.426;10.300;2022-10-26T11:11:32;101591.53;;;39.88;29.47
62791;BME280;48830;53.426;10.300;2022-10-26T11:14:30;101584.03;;;39.35;30.22
62791;BME280;48830;53.426;10.300;2022-10-26T11:19:44;101586.13;;;40.26;29.23
62791;BME280;48830;53.426;10.300;2022-10-26T11:22:20;101591.13;;;40.21;29.74
62791;BME280;48830;53.426;10.300;2022-10-26T11:24:53;101595.75;;;40.46;29.89
62791;BME280;48830;53.426;10.300;2022-10-26T11:27:32;101582.63;;;38.73;30.66
62791;BME280;48830;53.426;10.300;2022-10-26T11:30:13;101588.38;;;38.09;31.79
62791;BME280;48830;53.426;10.300;2022-10-26T11:32:43;101582.53;;;37.43;31.96
62791;BME280;48830;53.426;10.300;2022-10-26T11:35:21;101584.47;;;34.22;36.06
62791;BME280;48830;53.426;10.300;2022-10-26T11:38:09;101588.63;;;33.37;37.65
62791;BME280;48830;53.426;10.300;2022-10-26T11:43:17;101584.94;;;37.76;31.52
62791;BME280;48830;53.426;10.300;2022-10-26T11:45:56;101580.38;;;37.37;31.37
62791;BME280;48830;53.426;10.300;2022-10-26T11:48:33;101581.66;;;35.67;33.56
62791;BME280;48830;53.426;10.300;2022-10-26T11:51:01;101588.09;;;34.70;34.51
62791;BME280;48830;53.426;10.300;2022-10-26T11:53:35;101586.31;;;36.10;34.22
62791;BME280;48830;53.426;10.300;2022-10-26T11:56:02;101588.84;;;35.20;34.09
62791;BME280;48830;53.426;10.300;2022-10-26T11:58:30;101585.72;;;36.07;33.27
62791;BME280;48830;53.426;10.300;2022-10-26T12:01:17;101582.97;;;34.31;35.43
62791;BME280;48830;53.426;10.300;2022-10-26T12:03:46;101574.16;;;35.02;34.38
62791;BME280;48830;53.426;10.300;2022-10-26T12:06:14;101578.97;;;33.61;36.74
62791;BME280;48830;53.426;10.300;2022-10-26T12:08:47;101584.81;;;33.14;37.58
62791;BME280;48830;53.426;10.300;2022-10-26T12:11:48;101589.47;;;31.26;40.31
62791;BME280;48830;53.426;10.300;2022-10-26T12:19:54;101589.81;;;30.90;40.59
62791;BME280;48830;53.426;10.300;2022-10-26T12:22:28;101587.06;;;31.82;39.36
62791;BME280;48830;53.426;10.300;2022-10-26T12:25:23;101591.22;;;32.57;38.40
62791;BME280;48830;53.426;10.300;2022-10-26T12:27:53;101589.22;;;32.32;39.05
62791;BME280;48830;53.426;10.300;2022-10-26T12:30:26;101588.59;;;32.14;38.51
62791;BME280;48830;53.426;10.300;2022-10-26T12:32:54;101588.44;;;33.13;38.96
62791;BME280;48830;53.426;10.300;2022-10-26T12:35:40;101586.59;;;33.40;37.83
62791;BME280;48830;53.426;10.300;2022-10-26T12:48:42;101605.13;;;30.53;41.99
62791;BME280;48830;53.426;10.300;2022-10-26T12:53:57;101601.88;;;29.82;43.40
62791;BME280;48830;53.426;10.300;2022-10-26T12:56:54;101603.19;;;30.73;43.17
62791;BME280;48830;53.426;10.300;2022-10-26T13:02:09;101606.41;;;29.28;44.80
62791;BME280;48830;53.426;10.300;2022-10-26T13:07:35;101601.75;;;30.34;43.73
62791;BME280;48830;53.426;10.300;2022-10-26T13:10:25;101603.19;;;30.24;42.58
62791;BME280;48830;53.426;10.300;2022-10-26T13:18:15;101597.56;;;30.62;42.93
62791;BME280;48830;53.426;10.300;2022-10-26T13:21:06;101600.47;;;31.04;41.83
62791;BME280;48830;53.426;10.300;2022-10-26T13:23:35;101601.06;;;31.25;42.02
62791;BME280;48830;53.426;10.300;2022-10-26T13:26:18;101602.38;;;30.39;43.01
62791;BME280;48830;53.426;10.300;2022-10-26T13:28:55;101590.22;;;30.51;42.62
62791;BME280;48830;53.426;10.300;2022-10-26T13:31:51;101590.75;;;30.57;42.68
62791;BME280;48830;53.426;10.300;2022-10-26T13:34:16;101587.81;;;30.15;43.57
62791;BME280;48830;53.426;10.300;2022-10-26T13:39:22;101594.13;;;28.14;47.29
62791;BME280;48830;53.426;10.300;2022-10-26T13:41:51;101598.53;;;28.34;47.19
62791;BME280;48830;53.426;10.300;2022-10-26T13:47:09;101593.69;;;28.43;47.71
62791;BME280;48830;53.426;10.300;2022-10-26T13:49:40;101595.53;;;27.83;48.11
62791;BME280;48830;53.426;10.300;2022-10-26T13:52:14;101602.41;;;28.45;47.21
62791;BME280;48830;53.426;10.300;2022-10-26T13:54:46;101599.41;;;28.14;47.87
62791;BME280;48830;53.426;10.300;2022-10-26T13:57:28;101607.13;;;27.99;48.40
62791;BME280;48830;53.426;10.300;2022-10-26T13:59:57;101604.31;;;27.41;48.36
62791;BME280;48830;53.426;10.300;2022-10-26T14:02:26;101609.66;;;27.82;48.96
62791;BME280;48830;53.426;10.300;2022-10-26T14:05:00;101607.63;;;27.46;48.67
62791;BME280;48830;53.426;10.300;2022-10-26T14:07:56;101606.84;;;27.44;48.87
62791;BME280;48830;53.426;10.300;2022-10-26T14:10:36;101604.38;;;27.19;50.12
62791;BME280;48830;53.426;10.300;2022-10-26T14:13:08;101609.75;;;26.49;52.11
62791;BME280;48830;53.426;10.300;2022-10-26T14:15:35;101615.22;;;25.70;53.66
62791;BME280;48830;53.426;10.300;2022-10-26T14:18:02;101612.06;;;25.05;55.18
62791;BME280;48830;53.426;10.300;2022-10-26T14:20:29;101613.31;;;24.34;57.81
62791;BME280;48830;53.426;10.300;2022-10-26T14:22:55;101620.88;;;24.14;58.34
62791;BME280;48830;53.426;10.300;2022-10-26T14:25:24;101617.47;;;23.78;59.58
62791;BME280;48830;53.426;10.300;2022-10-26T14:27:50;101621.44;;;23.24;61.34
62791;BME280;48830;53.426;10.300;2022-10-26T14:30:27;101616.19;;;23.24;61.36
62791;BME280;48830;53.426;10.300;2022-10-26T14:32:54;101619.72;;;23.23;61.11
62791;BME280;48830;53.426;10.300;2022-10-26T14:35:22;101620.00;;;23.11;61.55
62791;BME280;48830;53.426;10.300;2022-10-26T14:37:57;101618.25;;;23.47;60.98
62791;BME280;48830;53.426;10.300;2022-10-26T14:40:25;101622.44;;;24.54;58.38
62791;BME280;48830;53.426;10.300;2022-10-26T14:42:57;101633.78;;;25.12;56.17
62791;BME280;48830;53.426;10.300;2022-10-26T14:45:31;101623.56;;;24.73;56.54
62791;BME280;48830;53.426;10.300;2022-10-26T14:48:00;101621.66;;;25.61;55.26